createdAt,value
2022-09-03T00:03:33.291Z,6.60
2022-09-03T00:08:43.860Z,6.48
2022-09-03T00:13:52.461Z,6.34
2022-09-03T00:19:01.066Z,6.39
2022-09-03T00:24:14.143Z,6.38
2022-09-03T00:29:21.320Z,6.26
2022-09-03T00:34:28.776Z,6.14
2022-09-03T00:39:33.922Z,5.90
2022-09-03T00:44:50.265Z,5.84
2022-09-03T00:50:09.467Z,5.76
2022-09-03T00:55:23.951Z,5.68
2022-09-03T01:00:29.280Z,5.58
2022-09-03T01:06:03.620Z,5.52
2022-09-03T01:11:22.298Z,5.41
2022-09-03T01:16:33.712Z,5.36
2022-09-03T01:22:21.074Z,5.23
2022-09-03T01:27:38.226Z,5.27
2022-09-03T01:32:53.162Z,5.16
2022-09-03T01:38:07.260Z,5.20
2022-09-03T01:43:24.903Z,5.19
2022-09-03T01:48:38.665Z,5.18
2022-09-03T01:54:03.627Z,5.19
2022-09-03T01:59:13.252Z,5.10
2022-09-03T02:04:23.834Z,5.07
2022-09-03T02:09:32.559Z,4.99
2022-09-03T02:14:37.461Z,5.03
2022-09-03T02:19:42.723Z,5.02
2022-09-03T02:24:46.226Z,5.00
2022-09-03T02:29:49.711Z,5.02
2022-09-03T02:34:54.453Z,5.09
2022-09-03T02:39:58.067Z,5.06
2022-09-03T02:45:11.182Z,5.11
2022-09-03T02:50:16.306Z,5.11
2022-09-03T02:55:20.814Z,5.17
2022-09-03T03:00:24.479Z,5.21
2022-09-03T03:05:43.938Z,5.28
2022-09-03T03:10:48.108Z,5.18
2022-09-03T03:15:51.679Z,5.28
2022-09-03T03:20:56.637Z,5.44
2022-09-03T03:26:03.043Z,5.56
2022-09-03T03:31:11.607Z,5.73
2022-09-03T03:36:17.298Z,5.86
2022-09-03T03:41:23.746Z,5.97
2022-09-03T03:46:31.229Z,5.94
2022-09-03T03:51:37.347Z,6.03
2022-09-03T03:56:41.067Z,6.20
2022-09-03T04:01:45.802Z,6.43
2022-09-03T04:06:50.914Z,6.66
2022-09-03T04:11:54.425Z,6.90
2022-09-03T04:16:58.348Z,10.77
2022-09-03T04:22:04.200Z,18.54
2022-09-03T04:27:07.718Z,22.13
2022-09-03T04:32:28.827Z,24.89
2022-09-03T04:37:33.803Z,19.87
2022-09-03T04:42:37.203Z,15.58
2022-09-03T04:47:41.150Z,13.34
2022-09-03T04:52:46.143Z,12.17
2022-09-03T04:57:49.585Z,17.64
2022-09-03T05:02:53.249Z,24.31
2022-09-03T05:08:01.881Z,24.74
2022-09-03T05:13:06.998Z,27.78
2022-09-03T05:18:10.969Z,30.18
2022-09-03T05:23:16.089Z,30.91
2022-09-03T05:28:19.854Z,32.50
2022-09-03T05:33:23.994Z,31.95
2022-09-03T05:38:29.592Z,33.94
2022-09-03T05:43:34.038Z,34.33
2022-09-03T05:48:39.751Z,35.22
2022-09-03T05:53:46.143Z,36.87
2022-09-03T05:58:50.732Z,36.34
2022-09-03T06:03:56.875Z,36.42
2022-09-03T06:09:04.522Z,36.89
2022-09-03T06:14:09.768Z,36.81
2022-09-03T06:19:14.462Z,35.72
2022-09-03T06:24:26.321Z,37.78
2022-09-03T06:29:29.959Z,36.95
2022-09-03T06:34:33.463Z,38.61
2022-09-03T06:39:38.964Z,38.37
2022-09-03T06:44:45.480Z,37.14
2022-09-03T06:49:49.069Z,38.96
2022-09-03T06:54:54.521Z,38.23
2022-09-03T06:59:58.083Z,38.01
2022-09-03T07:05:01.726Z,39.07
2022-09-03T07:10:10.765Z,36.70
2022-09-03T07:15:14.443Z,39.45
2022-09-03T07:20:20.675Z,40.98
2022-09-03T07:25:26.360Z,34.63
2022-09-03T07:30:30.008Z,34.74
2022-09-03T07:35:37.574Z,32.52
2022-09-03T07:40:42.495Z,28.47
2022-09-03T07:45:51.914Z,27.25
2022-09-03T07:51:01.671Z,28.80
2022-09-03T07:56:10.102Z,27.16
2022-09-03T08:01:16.162Z,26.43
2022-09-03T08:06:21.788Z,24.90
2022-09-03T08:11:28.887Z,23.70
2022-09-03T08:16:34.418Z,27.12
2022-09-03T08:21:38.239Z,28.30
2022-09-03T08:26:47.876Z,27.85
2022-09-03T08:31:55.319Z,25.86
2022-09-03T08:37:01.675Z,26.54
2022-09-03T08:42:34.788Z,23.55
2022-09-03T08:47:43.145Z,23.08
2022-09-03T08:52:50.228Z,22.55
2022-09-03T08:58:03.715Z,21.32
2022-09-03T09:03:23.658Z,21.56
2022-09-03T09:08:36.653Z,21.29
2022-09-03T09:13:50.225Z,20.51
2022-09-03T09:19:11.977Z,20.18
2022-09-03T09:24:26.494Z,20.85
2022-09-03T09:29:34.394Z,20.86
2022-09-03T09:34:41.405Z,20.84
2022-09-03T09:39:57.371Z,20.19
2022-09-03T09:45:10.808Z,20.00
2022-09-03T09:50:25.957Z,20.62
2022-09-03T09:55:30.340Z,20.21
2022-09-03T10:00:37.605Z,19.66
2022-09-03T10:05:41.968Z,19.64
2022-09-03T10:10:49.148Z,19.66
2022-09-03T10:15:59.981Z,19.16
2022-09-03T10:21:11.201Z,18.78
2022-09-03T10:26:18.879Z,18.94
2022-09-03T10:31:47.532Z,18.50
2022-09-03T10:36:57.431Z,17.92
2022-09-03T10:42:15.084Z,17.59
2022-09-03T10:47:46.498Z,17.30
2022-09-03T10:53:07.848Z,17.49
2022-09-03T10:58:38.771Z,17.50
2022-09-03T11:03:49.564Z,17.83
2022-09-03T11:09:05.840Z,17.59
2022-09-03T11:14:11.725Z,18.01
2022-09-03T11:19:20.226Z,18.30
2022-09-03T11:24:26.901Z,18.26
2022-09-03T11:29:38.323Z,18.12
2022-09-03T11:34:54.690Z,18.07
2022-09-03T11:40:01.081Z,18.42
2022-09-03T11:45:22.596Z,18.68
2022-09-03T11:50:29.974Z,18.02
2022-09-03T11:55:43.358Z,17.88
2022-09-03T12:00:53.402Z,17.82
2022-09-03T12:06:28.427Z,17.79
2022-09-03T12:11:50.131Z,17.58
2022-09-03T12:17:06.920Z,17.08
2022-09-03T12:22:17.011Z,17.08
2022-09-03T12:27:24.990Z,17.04
2022-09-03T12:32:30.570Z,17.20
2022-09-03T12:48:43.639Z,17.70
2022-09-03T12:53:50.024Z,17.61
2022-09-03T12:58:59.709Z,17.67
2022-09-03T13:04:08.702Z,17.39
2022-09-03T13:09:17.574Z,17.30
2022-09-03T13:14:21.503Z,17.41
2022-09-03T13:19:32.386Z,17.38
2022-09-03T13:25:02.745Z,17.20
2022-09-03T13:30:12.300Z,17.07
2022-09-03T13:35:29.559Z,16.88
2022-09-03T13:40:43.054Z,16.50
2022-09-03T13:45:53.952Z,16.44
2022-09-03T13:51:08.928Z,16.40
2022-09-03T13:56:26.105Z,16.47
2022-09-03T14:01:43.319Z,16.50
2022-09-03T14:06:56.126Z,16.41
2022-09-03T14:12:07.047Z,16.47
2022-09-03T14:17:17.119Z,16.47
2022-09-03T14:22:26.889Z,16.22
2022-09-03T14:27:35.038Z,16.07
2022-09-03T14:32:50.688Z,16.12
2022-09-03T14:38:26.993Z,16.13
2022-09-03T14:44:00.061Z,16.33
2022-09-03T14:49:33.670Z,16.27
2022-09-03T14:54:58.955Z,15.97
2022-09-03T15:00:18.557Z,15.71
2022-09-03T15:05:43.801Z,15.72
2022-09-03T15:10:56.352Z,15.70
2022-09-03T15:16:13.496Z,15.60
2022-09-03T15:21:27.465Z,15.71
2022-09-03T15:26:57.259Z,15.62
2022-09-03T15:32:09.437Z,15.65
2022-09-03T15:37:22.846Z,15.57
2022-09-03T15:42:29.617Z,15.27
2022-09-03T15:47:51.606Z,15.17
2022-09-03T15:53:03.897Z,14.85
2022-09-03T15:58:19.211Z,14.53
2022-09-03T16:03:47.127Z,14.25
2022-09-03T16:08:56.419Z,14.07
2022-09-03T16:14:12.511Z,13.84
2022-09-03T16:19:23.413Z,13.77
2022-09-03T16:24:35.996Z,13.68
2022-09-03T16:29:39.894Z,13.56
2022-09-03T16:34:56.134Z,13.22
2022-09-03T16:40:13.550Z,13.09
2022-09-03T16:45:29.057Z,13.02
2022-09-03T16:50:48.136Z,12.96
2022-09-03T16:56:28.487Z,12.93
2022-09-03T17:01:59.872Z,12.85
2022-09-03T17:07:20.802Z,12.56
2022-09-03T17:12:37.510Z,12.66
2022-09-03T17:18:20.981Z,12.75
2022-09-03T17:23:52.890Z,12.71
2022-09-03T17:29:10.296Z,12.79
2022-09-03T17:34:33.448Z,12.86
2022-09-03T17:39:57.742Z,12.89
2022-09-03T17:45:17.110Z,12.95
2022-09-03T17:50:26.740Z,13.00
2022-09-03T17:55:39.935Z,12.83
2022-09-03T18:00:53.627Z,12.72
2022-09-03T18:06:05.218Z,12.58
2022-09-03T18:11:14.270Z,12.47
2022-09-03T18:16:27.584Z,12.12
2022-09-03T18:21:53.599Z,11.95
2022-09-03T18:27:19.328Z,11.74
2022-09-03T18:32:40.994Z,11.51
2022-09-03T18:38:02.664Z,11.34
2022-09-03T18:43:38.731Z,11.27
2022-09-03T18:49:09.390Z,11.39
2022-09-03T18:55:06.734Z,11.27
2022-09-03T19:00:32.550Z,11.37
2022-09-03T19:06:02.006Z,11.47
2022-09-03T19:11:27.936Z,11.57
2022-09-03T19:16:59.472Z,11.74
2022-09-03T19:22:26.730Z,11.76
2022-09-03T19:27:59.555Z,11.87
2022-09-03T19:33:32.072Z,11.89
2022-09-03T19:39:08.543Z,11.87
2022-09-03T19:44:48.903Z,11.92
2022-09-03T19:50:22.560Z,11.88
2022-09-03T19:55:45.830Z,11.87
2022-09-03T20:01:07.753Z,11.71
2022-09-03T20:06:30.950Z,11.54
2022-09-03T20:11:34.638Z,11.46
2022-09-03T20:16:45.882Z,11.41
2022-09-03T20:21:59.004Z,11.30
2022-09-03T20:27:16.893Z,11.16
2022-09-03T20:32:40.813Z,11.09
2022-09-03T20:37:51.545Z,11.11
2022-09-03T20:43:23.749Z,11.08
2022-09-03T20:48:38.506Z,11.06
2022-09-03T20:53:57.144Z,10.97
2022-09-03T20:59:10.081Z,10.91
2022-09-03T21:04:30.722Z,10.77
2022-09-03T21:09:44.383Z,10.69
2022-09-03T21:14:55.822Z,10.66
2022-09-03T21:20:13.038Z,10.59
2022-09-03T21:25:24.029Z,10.48
2022-09-03T21:30:29.638Z,10.30
2022-09-03T21:35:37.103Z,10.16
2022-09-03T21:40:48.315Z,9.99
2022-09-03T21:46:01.450Z,9.89
2022-09-03T21:51:10.514Z,9.71
2022-09-03T21:56:49.705Z,9.66
2022-09-03T22:02:02.601Z,9.56
2022-09-03T22:07:16.628Z,9.57
2022-09-03T22:12:28.408Z,9.47
2022-09-03T22:17:47.143Z,9.41
2022-09-03T22:22:56.709Z,9.29
2022-09-03T22:28:11.924Z,9.25
2022-09-03T22:33:20.129Z,9.13
2022-09-03T22:38:59.058Z,9.05
2022-09-03T22:44:13.500Z,8.96
2022-09-03T22:49:32.957Z,8.88
2022-09-03T22:54:47.777Z,8.85
2022-09-03T23:00:01.987Z,8.75
2022-09-03T23:05:11.919Z,8.63
2022-09-03T23:10:25.430Z,8.49
2022-09-03T23:15:33.889Z,8.38
2022-09-03T23:20:41.913Z,8.26
2022-09-03T23:25:50.450Z,8.00
2022-09-03T23:31:04.859Z,7.96
2022-09-03T23:36:43.333Z,7.83
2022-09-03T23:41:54.967Z,7.77
2022-09-03T23:47:12.326Z,7.50
2022-09-03T23:52:34.046Z,7.47
2022-09-03T23:57:41.595Z,7.40
